sensor_id;sensor_type;location;lat;lon;timestamp;temperature;humidity
36816;DHT22;22760;51.910;4.474;2022-07-29T00:00:49;17.50;99.90
36816;DHT22;22760;51.910;4.474;2022-07-29T00:03:15;17.60;99.90
36816;DHT22;22760;51.910;4.474;2022-07-29T00:05:42;17.50;99.90
36816;DHT22;22760;51.910;4.474;2022-07-29T00:08:09;17.50;99.90
36816;DHT22;22760;51.910;4.474;2022-07-29T00:10:36;17.50;99.90
36816;DHT22;22760;51.910;4.474;2022-07-29T00:13:04;17.50;99.90
36816;DHT22;22760;51.910;4.474;2022-07-29T00:15:30;17.50;99.90
36816;DHT22;22760;51.910;4.474;2022-07-29T00:17:57;17.50;99.90
36816;DHT22;22760;51.910;4.474;2022-07-29T00:20:24;17.40;99.90
36816;DHT22;22760;51.910;4.474;2022-07-29T00:22:51;17.40;99.90
36816;DHT22;22760;51.910;4.474;2022-07-29T00:25:18;17.40;99.90
36816;DHT22;22760;51.910;4.474;2022-07-29T00:27:45;17.40;99.90
36816;DHT22;22760;51.910;4.474;2022-07-29T00:30:13;17.30;99.90
36816;DHT22;22760;51.910;4.474;2022-07-29T00:32:40;17.30;99.90
36816;DHT22;22760;51.910;4.474;2022-07-29T00:35:08;17.30;99.90
36816;DHT22;22760;51.910;4.474;2022-07-29T00:37:52;17.30;99.90
36816;DHT22;22760;51.910;4.474;2022-07-29T00:40:19;17.40;99.90
36816;DHT22;22760;51.910;4.474;2022-07-29T00:42:48;17.30;99.90
36816;DHT22;22760;51.910;4.474;2022-07-29T00:45:17;17.30;99.90
36816;DHT22;22760;51.910;4.474;2022-07-29T00:47:44;17.30;99.90
36816;DHT22;22760;51.910;4.474;2022-07-29T00:50:12;17.30;99.90
36816;DHT22;22760;51.910;4.474;2022-07-29T00:52:41;17.30;99.90
36816;DHT22;22760;51.910;4.474;2022-07-29T00:55:10;17.30;99.90
36816;DHT22;22760;51.910;4.474;2022-07-29T00:57:37;17.20;99.90
36816;DHT22;22760;51.910;4.474;2022-07-29T01:00:06;17.20;99.90
36816;DHT22;22760;51.910;4.474;2022-07-29T01:02:35;17.10;99.90
36816;DHT22;22760;51.910;4.474;2022-07-29T01:05:03;17.10;99.90
36816;DHT22;22760;51.910;4.474;2022-07-29T01:07:30;17.10;99.90
36816;DHT22;22760;51.910;4.474;2022-07-29T01:09:59;17.00;99.90
36816;DHT22;22760;51.910;4.474;2022-07-29T01:12:27;17.00;99.90
36816;DHT22;22760;51.910;4.474;2022-07-29T01:14:55;17.00;99.90
36816;DHT22;22760;51.910;4.474;2022-07-29T01:17:26;17.10;99.90
36816;DHT22;22760;51.910;4.474;2022-07-29T01:19:59;17.00;99.90
36816;DHT22;22760;51.910;4.474;2022-07-29T01:22:33;17.00;99.90
36816;DHT22;22760;51.910;4.474;2022-07-29T01:25:32;17.00;99.90
36816;DHT22;22760;51.910;4.474;2022-07-29T01:30:51;17.00;99.90
36816;DHT22;22760;51.910;4.474;2022-07-29T01:33:20;17.00;99.90
36816;DHT22;22760;51.910;4.474;2022-07-29T01:36:17;17.00;99.90
36816;DHT22;22760;51.910;4.474;2022-07-29T01:38:50;16.90;99.90
36816;DHT22;22760;51.910;4.474;2022-07-29T01:41:21;16.90;99.90
36816;DHT22;22760;51.910;4.474;2022-07-29T01:43:51;17.00;99.90
36816;DHT22;22760;51.910;4.474;2022-07-29T01:46:27;17.00;99.90
36816;DHT22;22760;51.910;4.474;2022-07-29T01:48:59;16.90;99.90
36816;DHT22;22760;51.910;4.474;2022-07-29T01:51:31;16.90;99.90
36816;DHT22;22760;51.910;4.474;2022-07-29T01:54:02;16.90;99.90
36816;DHT22;22760;51.910;4.474;2022-07-29T01:56:31;16.90;99.90
36816;DHT22;22760;51.910;4.474;2022-07-29T01:58:59;16.90;99.90
36816;DHT22;22760;51.910;4.474;2022-07-29T02:01:29;16.80;99.90
36816;DHT22;22760;51.910;4.474;2022-07-29T02:03:59;16.80;99.90
36816;DHT22;22760;51.910;4.474;2022-07-29T02:06:30;16.70;99.90
36816;DHT22;22760;51.910;4.474;2022-07-29T02:08:59;16.80;99.90
36816;DHT22;22760;51.910;4.474;2022-07-29T02:11:26;16.70;99.90
36816;DHT22;22760;51.910;4.474;2022-07-29T02:13:55;16.70;99.90
36816;DHT22;22760;51.910;4.474;2022-07-29T02:16:24;16.70;99.90
36816;DHT22;22760;51.910;4.474;2022-07-29T02:18:56;16.70;99.90
36816;DHT22;22760;51.910;4.474;2022-07-29T02:21:25;16.70;99.90
36816;DHT22;22760;51.910;4.474;2022-07-29T02:23:53;16.70;99.90
36816;DHT22;22760;51.910;4.474;2022-07-29T02:26:23;16.70;99.90
36816;DHT22;22760;51.910;4.474;2022-07-29T02:28:54;16.70;99.90
36816;DHT22;22760;51.910;4.474;2022-07-29T02:31:25;16.60;99.90
36816;DHT22;22760;51.910;4.474;2022-07-29T02:33:54;16.60;99.90
36816;DHT22;22760;51.910;4.474;2022-07-29T02:36:23;16.70;99.90
36816;DHT22;22760;51.910;4.474;2022-07-29T02:38:51;16.70;99.90
36816;DHT22;22760;51.910;4.474;2022-07-29T02:41:24;16.70;99.90
36816;DHT22;22760;51.910;4.474;2022-07-29T02:43:55;16.70;99.90
36816;DHT22;22760;51.910;4.474;2022-07-29T02:46:29;16.70;99.90
36816;DHT22;22760;51.910;4.474;2022-07-29T02:49:04;16.70;99.90
36816;DHT22;22760;51.910;4.474;2022-07-29T02:51:40;16.70;99.90
36816;DHT22;22760;51.910;4.474;2022-07-29T02:54:09;16.60;99.90
36816;DHT22;22760;51.910;4.474;2022-07-29T02:56:39;16.70;99.90
36816;DHT22;22760;51.910;4.474;2022-07-29T02:59:10;16.60;99.90
36816;DHT22;22760;51.910;4.474;2022-07-29T03:01:41;16.60;99.90
36816;DHT22;22760;51.910;4.474;2022-07-29T03:04:11;16.60;99.90
36816;DHT22;22760;51.910;4.474;2022-07-29T03:06:40;16.60;99.90
36816;DHT22;22760;51.910;4.474;2022-07-29T03:09:10;16.60;99.90
36816;DHT22;22760;51.910;4.474;2022-07-29T03:11:38;16.60;99.90
36816;DHT22;22760;51.910;4.474;2022-07-29T03:14:05;16.50;99.90
36816;DHT22;22760;51.910;4.474;2022-07-29T03:16:33;16.50;99.90
36816;DHT22;22760;51.910;4.474;2022-07-29T03:19:02;16.50;99.90
36816;DHT22;22760;51.910;4.474;2022-07-29T03:21:30;16.50;99.90
36816;DHT22;22760;51.910;4.474;2022-07-29T03:23:57;16.50;99.90
36816;DHT22;22760;51.910;4.474;2022-07-29T03:26:24;16.50;99.90
36816;DHT22;22760;51.910;4.474;2022-07-29T03:28:51;16.50;99.90
36816;DHT22;22760;51.910;4.474;2022-07-29T03:31:18;16.50;99.90
36816;DHT22;22760;51.910;4.474;2022-07-29T03:33:45;16.50;99.90
36816;DHT22;22760;51.910;4.474;2022-07-29T03:36:11;16.50;99.90
36816;DHT22;22760;51.910;4.474;2022-07-29T03:38:42;16.50;99.90
36816;DHT22;22760;51.910;4.474;2022-07-29T03:41:11;16.50;99.90
36816;DHT22;22760;51.910;4.474;2022-07-29T03:43:40;16.50;99.90
36816;DHT22;22760;51.910;4.474;2022-07-29T03:46:09;16.50;99.90
36816;DHT22;22760;51.910;4.474;2022-07-29T03:48:39;16.50;99.90
36816;DHT22;22760;51.910;4.474;2022-07-29T03:51:08;16.40;99.90
36816;DHT22;22760;51.910;4.474;2022-07-29T03:53:35;16.40;99.90
36816;DHT22;22760;51.910;4.474;2022-07-29T03:56:05;16.30;99.90
36816;DHT22;22760;51.910;4.474;2022-07-29T03:58:33;16.40;99.90
36816;DHT22;22760;51.910;4.474;2022-07-29T04:01:00;16.40;99.90
36816;DHT22;22760;51.910;4.474;2022-07-29T04:03:27;16.40;99.90
36816;DHT22;22760;51.910;4.474;2022-07-29T04:05:59;16.40;99.90
36816;DHT22;22760;51.910;4.474;2022-07-29T04:08:26;16.30;99.90
36816;DHT22;22760;51.910;4.474;2022-07-29T04:10:53;16.30;99.90
36816;DHT22;22760;51.910;4.474;2022-07-29T04:13:21;16.20;99.90
36816;DHT22;22760;51.910;4.474;2022-07-29T04:15:48;16.20;99.90
36816;DHT22;22760;51.910;4.474;2022-07-29T04:18:14;16.20;99.90
36816;DHT22;22760;51.910;4.474;2022-07-29T04:20:41;16.20;99.90
36816;DHT22;22760;51.910;4.474;2022-07-29T04:23:08;16.20;99.90
36816;DHT22;22760;51.910;4.474;2022-07-29T04:25:37;16.20;99.90
36816;DHT22;22760;51.910;4.474;2022-07-29T04:28:04;16.30;99.90
36816;DHT22;22760;51.910;4.474;2022-07-29T04:30:33;16.30;99.90
36816;DHT22;22760;51.910;4.474;2022-07-29T04:33:02;16.20;99.90
36816;DHT22;22760;51.910;4.474;2022-07-29T04:35:29;16.30;99.90
36816;DHT22;22760;51.910;4.474;2022-07-29T04:37:56;16.30;99.90
36816;DHT22;22760;51.910;4.474;2022-07-29T04:40:23;16.20;99.90
36816;DHT22;22760;51.910;4.474;2022-07-29T04:42:50;16.20;99.90
36816;DHT22;22760;51.910;4.474;2022-07-29T04:45:17;16.20;99.90
36816;DHT22;22760;51.910;4.474;2022-07-29T04:47:45;16.10;99.90
36816;DHT22;22760;51.910;4.474;2022-07-29T04:50:12;16.10;99.90
36816;DHT22;22760;51.910;4.474;2022-07-29T04:52:38;16.10;99.90
36816;DHT22;22760;51.910;4.474;2022-07-29T04:55:06;16.10;99.90
36816;DHT22;22760;51.910;4.474;2022-07-29T04:57:33;16.10;99.90
36816;DHT22;22760;51.910;4.474;2022-07-29T05:00:00;16.10;99.90
36816;DHT22;22760;51.910;4.474;2022-07-29T05:02:26;16.10;99.90
36816;DHT22;22760;51.910;4.474;2022-07-29T05:04:54;16.10;99.90
36816;DHT22;22760;51.910;4.474;2022-07-29T05:07:21;16.10;99.90
36816;DHT22;22760;51.910;4.474;2022-07-29T05:09:48;16.00;99.90
36816;DHT22;22760;51.910;4.474;2022-07-29T05:12:15;16.00;99.90
36816;DHT22;22760;51.910;4.474;2022-07-29T05:14:42;16.00;99.90
36816;DHT22;22760;51.910;4.474;2022-07-29T05:17:08;15.90;99.90
36816;DHT22;22760;51.910;4.474;2022-07-29T05:19:35;16.00;99.90
36816;DHT22;22760;51.910;4.474;2022-07-29T05:22:03;16.00;99.90
36816;DHT22;22760;51.910;4.474;2022-07-29T05:24:30;16.00;99.90
36816;DHT22;22760;51.910;4.474;2022-07-29T05:26:57;16.00;99.90
36816;DHT22;22760;51.910;4.474;2022-07-29T05:29:24;16.00;99.90
36816;DHT22;22760;51.910;4.474;2022-07-29T05:31:51;16.10;99.90
36816;DHT22;22760;51.910;4.474;2022-07-29T05:34:18;16.20;99.90
36816;DHT22;22760;51.910;4.474;2022-07-29T05:36:45;16.20;99.90
36816;DHT22;22760;51.910;4.474;2022-07-29T05:39:13;16.40;99.90
36816;DHT22;22760;51.910;4.474;2022-07-29T05:41:40;16.40;99.90
36816;DHT22;22760;51.910;4.474;2022-07-29T05:44:06;16.50;99.90
36816;DHT22;22760;51.910;4.474;2022-07-29T05:46:33;16.40;99.90
36816;DHT22;22760;51.910;4.474;2022-07-29T05:49:00;16.50;99.90
36816;DHT22;22760;51.910;4.474;2022-07-29T05:51:28;16.50;99.90
36816;DHT22;22760;51.910;4.474;2022-07-29T05:53:55;16.60;99.90
36816;DHT22;22760;51.910;4.474;2022-07-29T05:56:23;16.60;99.90
36816;DHT22;22760;51.910;4.474;2022-07-29T05:58:50;16.50;99.90
36816;DHT22;22760;51.910;4.474;2022-07-29T06:01:17;16.60;99.90
36816;DHT22;22760;51.910;4.474;2022-07-29T06:03:44;16.50;99.90
36816;DHT22;22760;51.910;4.474;2022-07-29T06:06:11;16.60;99.90
36816;DHT22;22760;51.910;4.474;2022-07-29T06:08:38;16.70;99.90
36816;DHT22;22760;51.910;4.474;2022-07-29T06:11:06;16.70;99.90
36816;DHT22;22760;51.910;4.474;2022-07-29T06:13:35;16.80;99.90
36816;DHT22;22760;51.910;4.474;2022-07-29T06:16:02;17.00;99.90
36816;DHT22;22760;51.910;4.474;2022-07-29T06:18:29;17.10;99.90
36816;DHT22;22760;51.910;4.474;2022-07-29T06:20:56;17.30;99.90
36816;DHT22;22760;51.910;4.474;2022-07-29T06:23:23;17.30;99.90
36816;DHT22;22760;51.910;4.474;2022-07-29T06:25:50;17.40;99.90
36816;DHT22;22760;51.910;4.474;2022-07-29T06:28:16;17.40;99.90
36816;DHT22;22760;51.910;4.474;2022-07-29T06:30:44;17.50;99.90
36816;DHT22;22760;51.910;4.474;2022-07-29T06:33:16;17.40;99.90
36816;DHT22;22760;51.910;4.474;2022-07-29T06:35:43;17.50;99.90
36816;DHT22;22760;51.910;4.474;2022-07-29T06:38:11;17.50;99.90
36816;DHT22;22760;51.910;4.474;2022-07-29T06:40:41;17.50;99.90
36816;DHT22;22760;51.910;4.474;2022-07-29T06:43:26;17.70;99.90
36816;DHT22;22760;51.910;4.474;2022-07-29T06:45:58;17.70;99.90
36816;DHT22;22760;51.910;4.474;2022-07-29T06:48:27;17.80;99.90
36816;DHT22;22760;51.910;4.474;2022-07-29T06:50:53;18.00;99.90
36816;DHT22;22760;51.910;4.474;2022-07-29T06:53:20;17.90;99.90
36816;DHT22;22760;51.910;4.474;2022-07-29T06:55:47;17.90;99.90
36816;DHT22;22760;51.910;4.474;2022-07-29T06:58:14;18.10;99.90
36816;DHT22;22760;51.910;4.474;2022-07-29T07:00:43;18.10;99.90
36816;DHT22;22760;51.910;4.474;2022-07-29T07:03:11;18.30;99.90
36816;DHT22;22760;51.910;4.474;2022-07-29T07:05:38;18.50;99.90
36816;DHT22;22760;51.910;4.474;2022-07-29T07:08:05;18.60;99.90
36816;DHT22;22760;51.910;4.474;2022-07-29T07:10:32;18.50;99.90
36816;DHT22;22760;51.910;4.474;2022-07-29T07:12:59;18.40;99.90
36816;DHT22;22760;51.910;4.474;2022-07-29T07:15:26;18.70;99.90
36816;DHT22;22760;51.910;4.474;2022-07-29T07:17:53;18.90;99.90
36816;DHT22;22760;51.910;4.474;2022-07-29T07:20:21;18.90;99.90
36816;DHT22;22760;51.910;4.474;2022-07-29T07:22:48;19.00;99.90
36816;DHT22;22760;51.910;4.474;2022-07-29T07:25:15;19.10;99.90
36816;DHT22;22760;51.910;4.474;2022-07-29T07:27:43;19.10;99.90
36816;DHT22;22760;51.910;4.474;2022-07-29T07:30:10;19.20;99.90
36816;DHT22;22760;51.910;4.474;2022-07-29T07:32:37;19.20;99.90
36816;DHT22;22760;51.910;4.474;2022-07-29T07:35:05;19.30;99.90
36816;DHT22;22760;51.910;4.474;2022-07-29T07:37:34;19.30;99.90
36816;DHT22;22760;51.910;4.474;2022-07-29T07:40:01;19.20;99.90
36816;DHT22;22760;51.910;4.474;2022-07-29T07:42:28;19.10;99.90
36816;DHT22;22760;51.910;4.474;2022-07-29T07:44:54;19.30;99.90
36816;DHT22;22760;51.910;4.474;2022-07-29T07:47:21;19.60;99.90
36816;DHT22;22760;51.910;4.474;2022-07-29T07:49:50;19.60;99.90
36816;DHT22;22760;51.910;4.474;2022-07-29T07:52:18;19.70;99.90
36816;DHT22;22760;51.910;4.474;2022-07-29T07:54:48;19.90;99.90
36816;DHT22;22760;51.910;4.474;2022-07-29T07:57:15;20.10;99.90
36816;DHT22;22760;51.910;4.474;2022-07-29T07:59:42;20.10;99.90
36816;DHT22;22760;51.910;4.474;2022-07-29T08:02:09;20.10;99.90
36816;DHT22;22760;51.910;4.474;2022-07-29T08:04:36;20.30;99.90
36816;DHT22;22760;51.910;4.474;2022-07-29T08:07:06;20.50;99.90
36816;DHT22;22760;51.910;4.474;2022-07-29T08:09:33;20.70;99.90
36816;DHT22;22760;51.910;4.474;2022-07-29T08:12:02;20.70;99.90
36816;DHT22;22760;51.910;4.474;2022-07-29T08:14:31;20.90;99.90
36816;DHT22;22760;51.910;4.474;2022-07-29T08:16:58;21.20;99.90
36816;DHT22;22760;51.910;4.474;2022-07-29T08:19:25;21.20;99.90
36816;DHT22;22760;51.910;4.474;2022-07-29T08:21:52;21.10;99.90
36816;DHT22;22760;51.910;4.474;2022-07-29T08:24:19;20.70;99.90
36816;DHT22;22760;51.910;4.474;2022-07-29T08:27:05;20.60;99.90
36816;DHT22;22760;51.910;4.474;2022-07-29T08:29:32;20.70;99.90
36816;DHT22;22760;51.910;4.474;2022-07-29T08:31:59;20.70;99.90
36816;DHT22;22760;51.910;4.474;2022-07-29T08:34:26;20.60;99.90
36816;DHT22;22760;51.910;4.474;2022-07-29T08:36:54;20.60;99.90
36816;DHT22;22760;51.910;4.474;2022-07-29T08:39:21;20.60;99.90
36816;DHT22;22760;51.910;4.474;2022-07-29T08:41:48;20.50;99.90
36816;DHT22;22760;51.910;4.474;2022-07-29T08:44:18;20.50;99.90
36816;DHT22;22760;51.910;4.474;2022-07-29T08:46:47;20.60;99.90
36816;DHT22;22760;51.910;4.474;2022-07-29T08:49:15;20.80;99.90
36816;DHT22;22760;51.910;4.474;2022-07-29T08:51:41;20.80;99.90
36816;DHT22;22760;51.910;4.474;2022-07-29T08:54:09;21.20;99.90
36816;DHT22;22760;51.910;4.474;2022-07-29T08:56:38;21.50;99.90
36816;DHT22;22760;51.910;4.474;2022-07-29T08:59:08;21.70;99.90
36816;DHT22;22760;51.910;4.474;2022-07-29T09:01:38;21.90;99.90
36816;DHT22;22760;51.910;4.474;2022-07-29T09:04:10;21.90;99.90
36816;DHT22;22760;51.910;4.474;2022-07-29T09:06:42;21.80;99.90
36816;DHT22;22760;51.910;4.474;2022-07-29T09:09:09;22.00;99.90
36816;DHT22;22760;51.910;4.474;2022-07-29T09:11:36;22.20;99.90
36816;DHT22;22760;51.910;4.474;2022-07-29T09:14:03;22.10;99.90
36816;DHT22;22760;51.910;4.474;2022-07-29T09:16:46;22.20;99.90
36816;DHT22;22760;51.910;4.474;2022-07-29T09:19:20;22.40;99.90
36816;DHT22;22760;51.910;4.474;2022-07-29T09:21:47;22.60;99.90
36816;DHT22;22760;51.910;4.474;2022-07-29T09:24:36;22.90;99.90
36816;DHT22;22760;51.910;4.474;2022-07-29T09:27:08;23.00;99.90
36816;DHT22;22760;51.910;4.474;2022-07-29T09:29:36;23.10;99.90
36816;DHT22;22760;51.910;4.474;2022-07-29T09:32:08;23.10;99.30
36816;DHT22;22760;51.910;4.474;2022-07-29T09:34:36;23.00;99.90
36816;DHT22;22760;51.910;4.474;2022-07-29T09:37:03;23.00;99.90
36816;DHT22;22760;51.910;4.474;2022-07-29T09:39:32;23.30;99.90
36816;DHT22;22760;51.910;4.474;2022-07-29T09:42:00;23.30;99.20
36816;DHT22;22760;51.910;4.474;2022-07-29T09:44:40;23.50;99.20
36816;DHT22;22760;51.910;4.474;2022-07-29T09:47:09;23.30;99.30
36816;DHT22;22760;51.910;4.474;2022-07-29T09:49:50;23.10;99.50
36816;DHT22;22760;51.910;4.474;2022-07-29T09:52:17;23.40;99.90
36816;DHT22;22760;51.910;4.474;2022-07-29T09:54:44;23.50;98.60
36816;DHT22;22760;51.910;4.474;2022-07-29T09:57:23;23.80;99.00
36816;DHT22;22760;51.910;4.474;2022-07-29T09:59:56;23.90;99.00
36816;DHT22;22760;51.910;4.474;2022-07-29T10:02:28;24.00;99.30
36816;DHT22;22760;51.910;4.474;2022-07-29T10:04:56;23.90;97.80
36816;DHT22;22760;51.910;4.474;2022-07-29T10:07:24;23.70;97.20
36816;DHT22;22760;51.910;4.474;2022-07-29T10:09:53;23.70;98.30
36816;DHT22;22760;51.910;4.474;2022-07-29T10:12:21;24.10;98.40
36816;DHT22;22760;51.910;4.474;2022-07-29T10:14:49;24.40;98.50
36816;DHT22;22760;51.910;4.474;2022-07-29T10:17:16;24.20;96.40
36816;DHT22;22760;51.910;4.474;2022-07-29T10:19:45;24.40;96.20
36816;DHT22;22760;51.910;4.474;2022-07-29T10:22:12;24.70;95.70
36816;DHT22;22760;51.910;4.474;2022-07-29T10:24:39;24.60;95.00
36816;DHT22;22760;51.910;4.474;2022-07-29T10:27:08;24.80;97.70
36816;DHT22;22760;51.910;4.474;2022-07-29T10:29:34;24.80;96.00
36816;DHT22;22760;51.910;4.474;2022-07-29T10:32:15;24.60;94.90
36816;DHT22;22760;51.910;4.474;2022-07-29T10:35:16;24.40;94.70
36816;DHT22;22760;51.910;4.474;2022-07-29T10:37:58;24.40;96.40
36816;DHT22;22760;51.910;4.474;2022-07-29T10:40:42;24.40;96.00
36816;DHT22;22760;51.910;4.474;2022-07-29T10:43:31;24.70;96.20
36816;DHT22;22760;51.910;4.474;2022-07-29T10:46:02;25.00;96.10
36816;DHT22;22760;51.910;4.474;2022-07-29T10:48:29;25.30;94.70
36816;DHT22;22760;51.910;4.474;2022-07-29T10:50:59;24.90;93.00
36816;DHT22;22760;51.910;4.474;2022-07-29T10:53:46;24.80;93.70
36816;DHT22;22760;51.910;4.474;2022-07-29T10:56:26;24.80;93.30
36816;DHT22;22760;51.910;4.474;2022-07-29T10:59:23;24.90;94.10
36816;DHT22;22760;51.910;4.474;2022-07-29T11:01:52;24.80;94.50
36816;DHT22;22760;51.910;4.474;2022-07-29T11:07:21;24.80;93.30
36816;DHT22;22760;51.910;4.474;2022-07-29T11:12:49;25.40;90.40
36816;DHT22;22760;51.910;4.474;2022-07-29T11:15:17;25.70;91.00
36816;DHT22;22760;51.910;4.474;2022-07-29T11:18:07;25.80;90.50
36816;DHT22;22760;51.910;4.474;2022-07-29T11:20:37;25.70;90.50
36816;DHT22;22760;51.910;4.474;2022-07-29T11:23:26;25.70;91.00
36816;DHT22;22760;51.910;4.474;2022-07-29T11:26:16;25.70;91.10
36816;DHT22;22760;51.910;4.474;2022-07-29T11:29:00;25.70;90.50
36816;DHT22;22760;51.910;4.474;2022-07-29T11:31:37;25.90;90.10
36816;DHT22;22760;51.910;4.474;2022-07-29T11:34:21;25.80;88.00
36816;DHT22;22760;51.910;4.474;2022-07-29T11:37:22;25.70;84.90
36816;DHT22;22760;51.910;4.474;2022-07-29T11:40:10;25.60;84.10
36816;DHT22;22760;51.910;4.474;2022-07-29T11:42:38;25.50;86.40
36816;DHT22;22760;51.910;4.474;2022-07-29T11:45:07;25.50;85.40
36816;DHT22;22760;51.910;4.474;2022-07-29T11:47:36;25.40;85.90
36816;DHT22;22760;51.910;4.474;2022-07-29T11:50:06;26.00;87.10
36816;DHT22;22760;51.910;4.474;2022-07-29T11:52:33;26.20;88.80
36816;DHT22;22760;51.910;4.474;2022-07-29T11:55:04;26.10;90.80
36816;DHT22;22760;51.910;4.474;2022-07-29T11:57:34;25.90;86.40
36816;DHT22;22760;51.910;4.474;2022-07-29T12:00:01;25.60;87.90
36816;DHT22;22760;51.910;4.474;2022-07-29T12:02:38;25.80;89.70
36816;DHT22;22760;51.910;4.474;2022-07-29T12:05:08;26.20;88.00
36816;DHT22;22760;51.910;4.474;2022-07-29T12:07:35;26.20;86.30
36816;DHT22;22760;51.910;4.474;2022-07-29T12:10:04;26.40;87.10
36816;DHT22;22760;51.910;4.474;2022-07-29T12:12:32;26.60;85.30
36816;DHT22;22760;51.910;4.474;2022-07-29T12:15:11;26.80;83.80
36816;DHT22;22760;51.910;4.474;2022-07-29T12:17:37;27.10;83.80
36816;DHT22;22760;51.910;4.474;2022-07-29T12:20:06;27.20;85.80
36816;DHT22;22760;51.910;4.474;2022-07-29T12:22:35;26.60;81.00
36816;DHT22;22760;51.910;4.474;2022-07-29T12:25:05;26.30;81.30
36816;DHT22;22760;51.910;4.474;2022-07-29T12:27:34;26.20;83.10
36816;DHT22;22760;51.910;4.474;2022-07-29T12:30:05;26.30;84.10
36816;DHT22;22760;51.910;4.474;2022-07-29T12:32:33;26.40;83.40
36816;DHT22;22760;51.910;4.474;2022-07-29T12:35:03;26.50;83.50
36816;DHT22;22760;51.910;4.474;2022-07-29T12:37:31;26.50;83.80
36816;DHT22;22760;51.910;4.474;2022-07-29T12:39:57;26.50;85.50
36816;DHT22;22760;51.910;4.474;2022-07-29T12:42:24;26.60;80.60
36816;DHT22;22760;51.910;4.474;2022-07-29T12:44:52;26.30;81.50
36816;DHT22;22760;51.910;4.474;2022-07-29T12:47:20;25.80;82.80
36816;DHT22;22760;51.910;4.474;2022-07-29T12:49:47;25.50;83.70
36816;DHT22;22760;51.910;4.474;2022-07-29T12:52:27;25.40;84.60
36816;DHT22;22760;51.910;4.474;2022-07-29T12:54:54;25.50;84.00
36816;DHT22;22760;51.910;4.474;2022-07-29T12:57:21;25.60;84.40
36816;DHT22;22760;51.910;4.474;2022-07-29T13:00:02;25.60;86.70
36816;DHT22;22760;51.910;4.474;2022-07-29T13:02:29;25.30;87.70
36816;DHT22;22760;51.910;4.474;2022-07-29T13:04:57;25.10;89.90
36816;DHT22;22760;51.910;4.474;2022-07-29T13:07:24;24.90;90.10
36816;DHT22;22760;51.910;4.474;2022-07-29T13:09:52;24.80;91.50
36816;DHT22;22760;51.910;4.474;2022-07-29T13:12:20;24.70;90.50
36816;DHT22;22760;51.910;4.474;2022-07-29T13:14:49;24.70;90.80
36816;DHT22;22760;51.910;4.474;2022-07-29T13:17:18;25.20;90.50
36816;DHT22;22760;51.910;4.474;2022-07-29T13:19:49;25.40;89.10
36816;DHT22;22760;51.910;4.474;2022-07-29T13:22:18;25.20;90.20
36816;DHT22;22760;51.910;4.474;2022-07-29T13:24:49;24.90;91.20
36816;DHT22;22760;51.910;4.474;2022-07-29T13:27:17;24.80;92.20
36816;DHT22;22760;51.910;4.474;2022-07-29T13:29:44;24.40;93.20
36816;DHT22;22760;51.910;4.474;2022-07-29T13:32:12;24.30;92.80
36816;DHT22;22760;51.910;4.474;2022-07-29T13:34:40;24.50;93.10
36816;DHT22;22760;51.910;4.474;2022-07-29T13:37:07;24.60;91.30
36816;DHT22;22760;51.910;4.474;2022-07-29T13:39:34;24.90;92.00
36816;DHT22;22760;51.910;4.474;2022-07-29T13:42:00;25.20;89.00
36816;DHT22;22760;51.910;4.474;2022-07-29T13:44:27;25.40;88.50
36816;DHT22;22760;51.910;4.474;2022-07-29T13:46:54;25.70;89.40
36816;DHT22;22760;51.910;4.474;2022-07-29T13:49:21;25.90;85.10
36816;DHT22;22760;51.910;4.474;2022-07-29T13:51:50;25.80;86.00
36816;DHT22;22760;51.910;4.474;2022-07-29T13:54:16;25.90;84.20
36816;DHT22;22760;51.910;4.474;2022-07-29T13:56:43;25.60;82.20
36816;DHT22;22760;51.910;4.474;2022-07-29T13:59:10;25.40;84.70
36816;DHT22;22760;51.910;4.474;2022-07-29T14:01:37;25.30;85.00
36816;DHT22;22760;51.910;4.474;2022-07-29T14:04:06;25.50;87.30
36816;DHT22;22760;51.910;4.474;2022-07-29T14:06:33;25.80;87.40
36816;DHT22;22760;51.910;4.474;2022-07-29T14:09:03;25.80;85.00
36816;DHT22;22760;51.910;4.474;2022-07-29T14:11:31;26.10;87.00
36816;DHT22;22760;51.910;4.474;2022-07-29T14:13:59;26.40;86.00
36816;DHT22;22760;51.910;4.474;2022-07-29T14:16:26;26.60;85.10
36816;DHT22;22760;51.910;4.474;2022-07-29T14:18:52;26.30;83.70
36816;DHT22;22760;51.910;4.474;2022-07-29T14:21:19;26.20;86.30
36816;DHT22;22760;51.910;4.474;2022-07-29T14:23:46;26.40;86.10
36816;DHT22;22760;51.910;4.474;2022-07-29T14:26:14;26.30;86.20
36816;DHT22;22760;51.910;4.474;2022-07-29T14:28:41;26.00;85.80
36816;DHT22;22760;51.910;4.474;2022-07-29T14:31:09;26.20;86.10
36816;DHT22;22760;51.910;4.474;2022-07-29T14:33:35;26.10;82.30
36816;DHT22;22760;51.910;4.474;2022-07-29T14:36:03;26.30;84.30
36816;DHT22;22760;51.910;4.474;2022-07-29T14:38:30;26.40;82.80
36816;DHT22;22760;51.910;4.474;2022-07-29T14:40:56;26.30;82.90
36816;DHT22;22760;51.910;4.474;2022-07-29T14:43:24;26.30;83.70
36816;DHT22;22760;51.910;4.474;2022-07-29T14:45:51;26.40;83.30
36816;DHT22;22760;51.910;4.474;2022-07-29T14:48:18;26.30;84.20
36816;DHT22;22760;51.910;4.474;2022-07-29T14:50:45;26.30;81.40
36816;DHT22;22760;51.910;4.474;2022-07-29T14:53:11;26.10;82.80
36816;DHT22;22760;51.910;4.474;2022-07-29T14:55:39;26.00;84.50
36816;DHT22;22760;51.910;4.474;2022-07-29T14:58:07;26.10;82.70
36816;DHT22;22760;51.910;4.474;2022-07-29T15:00:36;26.00;82.10
36816;DHT22;22760;51.910;4.474;2022-07-29T15:03:03;26.00;83.10
36816;DHT22;22760;51.910;4.474;2022-07-29T15:05:30;25.80;80.90
36816;DHT22;22760;51.910;4.474;2022-07-29T15:07:58;25.80;82.50
36816;DHT22;22760;51.910;4.474;2022-07-29T15:10:25;25.90;83.30
36816;DHT22;22760;51.910;4.474;2022-07-29T15:12:52;25.80;81.70
36816;DHT22;22760;51.910;4.474;2022-07-29T15:15:19;25.90;82.90
36816;DHT22;22760;51.910;4.474;2022-07-29T15:17:47;25.80;82.90
36816;DHT22;22760;51.910;4.474;2022-07-29T15:20:14;25.80;83.40
36816;DHT22;22760;51.910;4.474;2022-07-29T15:22:41;26.30;81.00
36816;DHT22;22760;51.910;4.474;2022-07-29T15:25:08;26.50;82.60
36816;DHT22;22760;51.910;4.474;2022-07-29T15:27:35;26.70;83.40
36816;DHT22;22760;51.910;4.474;2022-07-29T15:30:03;26.70;82.70
36816;DHT22;22760;51.910;4.474;2022-07-29T15:32:30;26.80;82.50
36816;DHT22;22760;51.910;4.474;2022-07-29T15:34:58;27.30;82.80
36816;DHT22;22760;51.910;4.474;2022-07-29T15:37:25;27.50;81.50
36816;DHT22;22760;51.910;4.474;2022-07-29T15:39:53;27.40;80.20
36816;DHT22;22760;51.910;4.474;2022-07-29T15:42:20;27.40;80.80
36816;DHT22;22760;51.910;4.474;2022-07-29T15:44:47;27.10;81.10
36816;DHT22;22760;51.910;4.474;2022-07-29T15:47:13;27.00;82.00
36816;DHT22;22760;51.910;4.474;2022-07-29T15:49:41;26.90;81.30
36816;DHT22;22760;51.910;4.474;2022-07-29T15:52:09;26.90;79.70